Meteo4 di Emilio Bellavite Il primo osservatorio Meteo di Verona  
 
sabato 20 gennaio 2018
 
 
dati in tempo reale
Di seguito i dati in tempo reale delle stazioni on line della rete di Meteo4. Cliccando sul link della stazione, ove presente, si accederà al sito web personale.
Stazioni online
Località Giorno Ora Temp. Umid. Relat. Dew Point Press. Atm. Velocità Vento Direz. Vento Precip. Temp.
Min
Temp.
Max
Abano (PD) 20/01/18 04.15 2.9 °C 85 % 0.7 °C 1011.7 hPa 0.0 Km/h NW 0.0 mm  1.7 °C 2.9 °C
Acquaviva delle Fonti (BA) 20/01/18 04.33 9.8 °C 80 % 6.5 °C 1009.7 hPa 1.5 Km/h SSE 0.0 mm  9.2 °C 11.0 °C
Ala (TN) 20/01/18 04.33 1.7 °C 68 % -3.6 °C 1012.7 hPa 0.0 Km/h ESE 0.0 mm  0.1 °C 1.8 °C
Alleghe (BL) 20/01/18 04.33 -3.5 °C 63 % -9.5 °C 996.3 hPa 0.0 Km/h SE 0.0 mm  -4.5 °C -3.1 °C
Alleghe Lago (BL) 20/01/18 04.34 -4.6 °C 71 % -9.1 °C 1010.4 hPa 4.8 Km/h N 0.0 mm  -4.9 °C -2.2 °C
Ancona (AN) 20/01/18 04.15 5.9 °C 93 % 4.9 °C 1012.3 hPa 0.0 Km/h --- 1.4 mm  5.9 °C 8.3 °C
Arenzano (GE) 20/01/18 04.33 10.4 °C 38 % -3.3 °C 1011.9 hPa 16.1 Km/h SSE 0.0 mm  8.5 °C 11.8 °C
Arquà Polesine (RO) 20/01/18 04.33 -0.4 °C 90 % -1.8 °C 1013.4 hPa 0.0 Km/h SW 0.0 mm  -1.5 °C 0.4 °C
Arzignano loc. Castello (VI) 19/01/18 23.00 3.8 °C 75 % -0.2 °C 1010.9 hPa 0.0 Km/h --- 0.0 mm  0.8 °C 11.3 °C
Arzignano Pugnello (VI) 20/01/18 04.33 4.7 °C 80 % 1.7 °C 1010.6 hPa 0.0 Km/h W 0.0 mm  3.2 °C 4.8 °C
Arzignano San Bortolo (VI) 20/01/18 04.23 6.8 °C 71 % 1.9 °C 1009.7 hPa 4.8 Km/h NNW 0.0 mm  5.6 °C 6.8 °C
Arzignano Tezze (VI) 20/01/18 04.21 1.6 °C 87 % -0.4 °C 1012.1 hPa 0.0 Km/h NW 0.0 mm  -0.9 °C 2.2 °C
Asiago Rifugio Val Formica (VI) 20/01/18 04.24 -6.9 °C 76 % -10.4 °C 1012.1 hPa 5.6 Km/h NNW 0.0 mm  -8.6 °C -6.9 °C
Avenza-Carrara (MS) 20/01/18 04.10 4.6 °C 81 % 1.6 °C 1013.9 hPa 0.0 Km/h --- 0.0 mm  4.6 °C 7.3 °C
Avio (TN) 20/01/18 04.33 3.1 °C 61 % -3.7 °C 1012.0 hPa 0.0 Km/h NNE 0.0 mm  1.7 °C 3.2 °C
Badia Calavena loc. San Valentino (VR) 20/01/18 04.33 2.3 °C 79 % -1.0 °C 1009.6 hPa 9.7 Km/h N 0.0 mm  2.2 °C 4.2 °C
Barbara (AN) 20/01/18 04.33 5.9 °C 82 % 3.1 °C 1014.6 hPa 6.5 Km/h SSW 1.6 mm  5.8 °C 8.0 °C
Barcellona P.G. Centro (ME) 20/01/18 04.33 9.9 °C 77 % 6.0 °C 1014.2 hPa 6.4 Km/h ESE 0.0 mm  9.8 °C 10.7 °C
Barcellona Pozzo di Gotto (ME) 20/01/18 04.33 10.7 °C 78 % 7.0 °C 1014.0 hPa 10.9 Km/h WSW 0.0 mm  9.9 °C 11.6 °C
Bardolino (VR) 20/01/18 04.33 4.9 °C 53 % -3.9 °C 1005.3 hPa 0.0 Km/h E 0.0 mm  4.8 °C 6.8 °C
Bassano del Grappa (VI) 19/01/18 07.40 1.8 °C 66 % -3.9 °C 994.6 hPa 3.2 Km/h ENE 0.0 mm  1.4 °C 2.4 °C
Bellaria Igea Marina (RN) 20/01/18 04.33 3.6 °C 91 % 2.3 °C 1011.7 hPa 4.8 Km/h WNW 0.0 mm  3.6 °C 7.7 °C
Bellaria Igea Marina2 (RN) 20/01/18 04.33 3.7 °C 92 % 2.5 °C 1011.6 hPa 4.8 Km/h WNW 0.0 mm  3.7 °C 7.8 °C
Bellaria Igea Marina3 (RN) 20/01/18 04.33 2.2 °C 78 % -1.2 °C 1010.9 hPa 0.0 Km/h W 0.0 mm  2.1 °C 5.9 °C
Belluno Castion (BL) 19/01/18 15.45 5.7 °C 58 % -1.9 °C 1009.0 hPa 0.0 Km/h S 0.0 mm  -4.4 °C 5.8 °C
Bernate Ticino fraz. Casate (MI) 20/01/18 04.33 0.5 °C 87 % -1.4 °C 1010.0 hPa 0.0 Km/h NNE 0.0 mm  0.3 °C 2.4 °C
Besenello (TN) 20/01/18 04.34 0.9 °C 66 % -4.8 °C 1014.1 hPa 8.7 Km/h W 0.0 mm  -1.2 °C 2.7 °C
Besozzo (VA) 19/01/18 21.48 1.3 °C 69 % -3.8 °C 1011.3 hPa 0.0 Km/h --- 0.0 mm  -3.6 °C 13.9 °C
Bientina (PI) 20/01/18 04.33 4.5 °C 90 % 3.0 °C 1011.0 hPa 0.0 Km/h --- 0.0 mm  4.1 °C 7.2 °C
Bisignano (CS) 20/01/18 04.33 11.5 °C 70 % 6.2 °C 1011.5 hPa 10.7 Km/h S 0.0 mm  11.1 °C 12.6 °C
Bitti (NU) 20/01/18 04.33 7.3 °C 79 % 3.9 °C 1014.2 hPa 14.8 Km/h SSW 0.0 mm  7.3 °C 8.4 °C
Bolognano di Arco (TN) 20/01/18 04.33 1.8 °C 68 % -3.4 °C 1013.7 hPa 4.8 Km/h NNE 0.0 mm  0.4 °C 1.8 °C
Bonorva (SS) 20/01/18 04.10 7.6 °C 87 % 5.5 °C 1016.4 hPa 0.0 Km/h --- 0.0 mm  7.6 °C 8.6 °C
Borgo Valsugana (TN) 20/01/18 04.21 -2.4 °C 71 % -6.9 °C 1011.7 hPa 1.4 Km/h SSE 0.0 mm  -2.7 °C -1.4 °C
Borgofranco d'Ivrea (TO) 20/01/18 04.34 6.2 °C 39 % -6.8 °C 1013.2 hPa 17.6 Km/h N 0.0 mm  6.1 °C 10.3 °C
Borore (NU) 20/01/18 04.34 7.3 °C 86 % 5.1 °C 1015.5 hPa 3.2 Km/h NNE 0.0 mm  7.3 °C 8.6 °C
Brebbia (VA) 19/01/18 23.00 1.8 °C 72 % -2.7 °C 1013.1 hPa 0.0 Km/h E 0.0 mm  -2.6 °C 12.4 °C
Bresega (PD) 20/01/18 04.33 2.3 °C 87 % 0.6 °C 1012.0 hPa 0.0 Km/h N 0.0 mm  0.5 °C 2.6 °C
Brolo c/da Parrazzà (ME) 20/01/18 04.20 11.1 °C 70 % 5.8 °C 1014.4 hPa 8.0 Km/h SSE 0.0 mm  10.4 °C 12.2 °C
Brugine2 (PD) 20/01/18 04.29 -0.4 °C 90 % -1.9 °C 1012.8 hPa 0.0 Km/h NW 0.0 mm  -0.6 °C 0.4 °C
Buccheri (SR) 20/01/18 04.33 5.3 °C 68 % -0.1 °C 1008.0 hPa 0.0 Km/h SW 0.0 mm  4.9 °C 5.4 °C
Budoia (PN) 20/01/18 04.30 3.0 °C 81 % 0.1 °C 1012.7 hPa 4.8 Km/h NW 0.0 mm  2.8 °C 4.1 °C
Ca' Gallo (PU) 20/01/18 04.20 4.7 °C 89 % 3.1 °C 1007.0 hPa 1.1 Km/h NNW 0.0 mm  4.7 °C 6.9 °C
Calcinato (BS) 20/01/18 04.33 2.3 °C 73 % -2.0 °C 1015.1 hPa 3.2 Km/h S 0.0 mm  2.3 °C 5.7 °C
Calliano (TN) 20/01/18 04.33 0.1 °C 72 % -4.4 °C 1013.1 hPa 8.0 Km/h NE 0.0 mm  -1.2 °C 0.9 °C
Caltabellotta (AG) 20/01/18 04.10 6.3 °C 95 % 5.6 °C 1014.4 hPa 0.0 Km/h N 0.0 mm  6.2 °C 6.7 °C
Cammarata (AG) 20/01/18 04.33 6.7 °C 69 % 1.4 °C 1016.6 hPa 2.5 Km/h NW 0.0 mm  4.8 °C 8.1 °C
Campoformido (UD) 20/01/18 04.32 3.6 °C 75 % -0.5 °C 1013.4 hPa 4.7 Km/h NE 0.0 mm  2.0 °C 4.2 °C
Camposampiero (PD) 20/01/18 04.19 2.9 °C 80 % -0.2 °C 1013.0 hPa 0.0 Km/h NNE 0.0 mm  2.3 °C 3.8 °C
Capodimonte (VT) 20/01/18 04.30 8.4 °C 91 % 7.0 °C 1012.2 hPa 4.8 Km/h N 0.0 mm  7.1 °C 8.8 °C
Caprarola Centro Storico (VT) 20/01/18 03.26 6.8 °C 100 % 6.8 °C 1012.0 hPa 0.0 Km/h N 0.0 mm  6.8 °C 9.3 °C
Caprino (VR) 15/12/18 19.34 2.6 °C 92 % 1.4 °C 995.1 hPa 0.0 Km/h SW 0.0 mm  2.6 °C 7.2 °C
Carceri (PD) 20/01/18 04.11 0.3 °C 93 % -0.6 °C 1011.4 hPa 6.4 Km/h NE 0.0 mm  -0.6 °C 0.9 °C
Carmignano loc. Seano (PO) 20/01/18 04.34 5.7 °C 95 % 4.9 °C 1012.1 hPa 0.0 Km/h N 0.0 mm  5.7 °C 7.1 °C
Carpi (MO) 20/01/18 04.33 0.4 °C 93 % -0.6 °C 1012.3 hPa 2.4 Km/h WNW 0.0 mm  -1.1 °C 0.9 °C
Cartigliano (VI) 20/01/18 04.30 2.8 °C 68 % -2.5 °C 1012.0 hPa 1.9 Km/h NNE 0.0 mm  1.4 °C 2.8 °C
Cartura (PD) 20/01/18 04.34 1.4 °C 87 % -0.5 °C 1012.4 hPa 6.1 Km/h NNW 0.0 mm  -0.6 °C 1.4 °C
Casotto (VI) 20/01/18 04.21 0.9 °C 60 % -6.1 °C 1011.7 hPa 0.0 Km/h NW 0.0 mm  -0.1 °C 1.1 °C
Cassano Magnago (VA) 20/01/18 02.28 5.1 °C 61 % -1.8 °C 1012.1 hPa 3.2 Km/h ENE 0.0 mm  3.5 °C 5.7 °C
Castel d'Azzano (VR) 19/01/18 20.25 3.1 °C 83 % 0.5 °C 1000.7 hPa 0.0 Km/h --- 0.0 mm  -0.3 °C 9.7 °C
Castelferro (AL) 20/01/18 04.33 2.1 °C 85 % -0.2 °C 1013.8 hPa 6.4 Km/h SSW 0.0 mm  1.2 °C 5.7 °C
Castelfranco Veneto (TV) 20/01/18 04.15 3.5 °C 85 % 1.2 °C 1013.1 hPa 0.0 Km/h --- 0.0 mm  2.1 °C 3.6 °C
Castelfranco Veneto2 (TV) 20/01/18 04.07 -573.3 °C 255 % -73.3 °C 1012.1 hPa 0.0 Km/h N 0.0 mm  -573.3 °C -573.3 °C
Castelgomberto (VI) 20/01/18 04.34 3.6 °C 75 % -0.4 °C 1011.8 hPa 1.1 Km/h NW 0.0 mm  1.4 °C 3.6 °C
Castelnuovo V.C. (PI) 20/01/18 04.10 5.9 °C 93 % 4.9 °C 1010.7 hPa 0.0 Km/h SSE 0.0 mm  5.9 °C 7.3 °C
Castiglione del Lago (PG) 20/01/18 04.10 5.3 °C 72 % 0.6 °C 1013.8 hPa 0.0 Km/h --- 0.0 mm  5.3 °C 8.6 °C
Castiglione della Pescaia Vaticino (GR) 20/01/18 04.33 14.2 °C 80 % 10.8 °C 999.1 hPa 7.9 Km/h SE 0.0 mm  0.0 °C 0.0 °C
Cavaria con Premezzo (VA) 20/01/18 04.33 2.0 °C 72 % -2.8 °C 1012.3 hPa 2.0 Km/h NNE 0.0 mm  2.0 °C 5.0 °C
Cavazzale (VI) 19/01/18 15.55 9.4 °C 57 % 1.3 °C 1009.2 hPa 0.0 Km/h --- 0.0 mm  -1.2 °C 9.9 °C
Cefalù (PA) 20/01/18 00.21 11.3 °C 68 % 5.6 °C 1011.9 hPa 1.5 Km/h SE 0.0 mm  11.3 °C 11.5 °C
Cerea (VR) 20/01/18 00.00 0.1 °C 91 % -1.2 °C 1011.6 hPa 1.6 Km/h W 0.0 mm  0.1 °C 0.2 °C
Cerea2 (VR) 20/01/18 04.20 1.7 °C 69 % -3.4 °C 1010.0 hPa 0.0 Km/h N 0.0 mm  0.3 °C 2.2 °C
Cima Grappa (TV) 20/01/18 04.34 -4.3 °C 96 % -4.9 °C 1014.1 hPa 3.3 Km/h SSW 0.0 mm  -4.9 °C -3.0 °C
Cismon del Grappa loc. Corlo (VI) 20/01/18 04.14 -1.8 °C 85 % -4.0 °C 1014.0 hPa 3.9 Km/h NNE 0.0 mm  -1.8 °C -0.1 °C
Cittadella (PD) 19/01/18 23.31 2.6 °C 76 % -1.2 °C 1010.9 hPa 0.0 Km/h SE 0.0 mm  -0.7 °C 11.5 °C
Civita Castellana (VT) 20/01/18 04.34 6.9 °C 91 % 5.5 °C 1012.3 hPa 0.0 Km/h SSE 0.0 mm  6.6 °C 9.8 °C
Cogollo del Cengio (VI) 20/01/18 04.30 2.3 °C 34 % -11.9 °C 1010.8 hPa 10.9 Km/h NW 0.0 mm  1.0 °C 2.5 °C
Colle del Piccolo San Bernardo La Thuile (AO) 20/01/18 04.17 -9.4 °C 93 % -10.0 °C 1017.8 hPa 37.0 Km/h SW 0.0 mm  -9.6 °C -8.9 °C
Colle S. Lucia Posalz (BL) 19/01/18 09.09 2.8 °C 99 % 2.7 °C 1012.1 hPa 0.0 Km/h SSW 0.0 mm  1.8 °C 2.8 °C
Cologna Veneta Sant'Andrea (VR) 20/01/18 04.15 2.6 °C 81 % -0.3 °C 1012.3 hPa 0.0 Km/h NE 0.0 mm  -0.8 °C 2.7 °C
Colognola ai Colli (VR) 20/01/18 04.15 5.2 °C 80 % 2.1 °C 1013.2 hPa 1.6 Km/h N 0.0 mm  1.4 °C 5.2 °C
Contrada Dosso Gervasio (VR) 20/01/18 04.30 2.8 °C 61 % -4.4 °C 1010.2 hPa 2.0 Km/h W 0.0 mm  2.5 °C 3.4 °C
Corrubio di S. Anna d'Alfaedo (VR) 20/01/18 04.15 4.1 °C 55 % -4.1 °C 1013.2 hPa 1.6 Km/h WSW 0.0 mm  2.9 °C 4.1 °C
Cosseria Lidora (SV) 20/01/18 04.15 0.4 °C 68 % -4.8 °C 1013.4 hPa 6.4 Km/h WNW 0.0 mm  -0.6 °C 2.7 °C
Costa di Vittorio Veneto (TV) 20/01/18 04.25 3.6 °C 65 % -2.4 °C 1011.7 hPa 1.4 Km/h W 0.0 mm  2.9 °C 4.1 °C
Crespano del Grappa (TV) 20/01/18 04.20 3.8 °C 77 % 0.1 °C 1007.7 hPa 3.7 Km/h NNW 0.0 mm  2.4 °C 4.7 °C
Dorno (PV) 20/01/18 04.34 0.7 °C 96 % 0.2 °C 1013.8 hPa 0.0 Km/h W 0.0 mm  0.3 °C 2.9 °C
Dossobuono (VR) 20/01/18 04.34 1.7 °C 81 % -1.2 °C 1013.9 hPa 4.8 Km/h WSW 0.0 mm  1.3 °C 2.9 °C
Erbezzo Passo Fittanze (VR) 17/01/18 17.35 -2.3 °C 50 % -11.3 °C 1010.0 hPa 0.0 Km/h NE 0.0 mm  -3.7 °C 3.6 °C
Esine (BS) 20/01/18 04.33 5.0 °C 42 % -7.0 °C 1011.2 hPa 9.5 Km/h NE 0.0 mm  0.6 °C 5.1 °C
Falzè di Piave (TV) 19/01/18 21.08 1.8 °C 86 % -0.3 °C 1011.8 hPa 0.0 Km/h --- 0.0 mm  -3.3 °C 10.6 °C
Farra di Soligo (TV) 20/01/18 04.34 1.0 °C 67 % -4.4 °C 1016.8 hPa 0.0 Km/h NNE 0.0 mm  1.0 °C 4.2 °C
Favaro Veneto (VE) 20/01/18 04.30 3.3 °C 83 % 0.7 °C 1012.9 hPa 3.2 Km/h ENE 0.0 mm  2.1 °C 3.9 °C
Feltre Celarda (BL) 20/01/18 04.34 -3.9 °C 91 % -5.2 °C 1011.4 hPa 0.0 Km/h NNE 0.0 mm  -4.7 °C -3.8 °C
Ferrara di M.B. (VR) 20/01/18 04.10 -0.1 °C 60 % -7.0 °C 1007.7 hPa 3.2 Km/h N 0.0 mm  -2.7 °C 0.4 °C
Filo di Argenta (FE) 20/01/18 04.15 -1.2 °C 89 % -2.8 °C 1012.9 hPa 0.0 Km/h SSW 0.0 mm  -1.2 °C 2.4 °C
Fogliano Redipuglia (GO) 20/01/18 04.23 2.0 °C 68 % -3.3 °C 1013.4 hPa 23.3 Km/h E 0.0 mm  0.0 °C 3.1 °C
Foligno (PG) 20/01/18 04.10 7.6 °C 91 % 6.2 °C 1011.4 hPa 0.0 Km/h --- 0.0 mm  6.7 °C 8.7 °C
Fontanafredda (PN) 20/01/18 04.34 1.2 °C 93 % 0.2 °C 1012.3 hPa 4.5 Km/h ENE 0.0 mm  0.4 °C 4.2 °C
Gaggiano (MI) 20/01/18 04.34 0.9 °C 92 % -0.3 °C 1012.5 hPa 1.4 Km/h SW 0.0 mm  0.8 °C 4.1 °C
Gallio (VI) 20/01/18 04.20 -2.1 °C 66 % -7.6 °C 1013.4 hPa 0.0 Km/h N 0.0 mm  -3.2 °C -1.9 °C
Gardolo (TN) 20/01/18 04.33 -1.0 °C 76 % -4.7 °C 1014.8 hPa 0.0 Km/h NE 0.0 mm  -2.4 °C 0.3 °C
Genova Albaro (GE) 20/01/18 04.33 9.7 °C 33 % -5.8 °C 1018.0 hPa 4.2 Km/h NE 0.0 mm  6.1 °C 9.7 °C
Genova Erzelli (GE) 20/01/18 04.13 11.1 °C 34 % -4.2 °C 1011.0 hPa 8.0 Km/h N 0.0 mm  7.7 °C 11.1 °C
Gorizia (GO) 20/01/18 04.33 1.9 °C 80 % -1.2 °C 1013.1 hPa 4.7 Km/h NNE 0.0 mm  1.1 °C 5.3 °C
Gradisca d'Isonzo (GO) 20/01/18 04.34 0.1 °C 91 % -1.2 °C 1014.4 hPa 0.0 Km/h ENE 0.0 mm  -11.8 °C 2.3 °C
Iglesias (CI) 20/01/18 04.26 11.3 °C 73 % 6.6 °C 1018.2 hPa 1.4 Km/h SE 0.0 mm  11.3 °C 11.8 °C
Isola d'Elba Marina di Campo (LI) 20/01/18 04.00 12.8 °C 59 % 5.0 °C 1086.1 hPa 1.6 Km/h ENE 0.0 mm  9.4 °C 13.6 °C
Jesolo (VE) 20/01/18 00.45 4.3 °C 0 % 0.0 °C 1009.0 hPa 3.2 Km/h NNW 0.0 mm  4.3 °C 4.4 °C
Lavis (TN) 20/01/18 04.30 -1.3 °C 79 % -4.4 °C 1013.8 hPa 1.7 Km/h ESE 0.0 mm  -2.1 °C -0.9 °C
Laxolo (BG) 20/01/18 04.18 1.1 °C 60 % -5.8 °C 1006.0 hPa 0.3 Km/h S 0.0 mm  -1.2 °C 11.3 °C
Legnago (VR) 20/01/18 04.15 2.2 °C 90 % 0.8 °C 1012.4 hPa 0.0 Km/h --- 0.0 mm  0.1 °C 2.3 °C
Lesmo (MB) 13/01/18 18.15 3.3 °C 87 % 1.4 °C 1021.4 hPa 0.0 Km/h --- 0.3 mm  -1.1 °C 10.9 °C
Loano (SV) 20/01/18 04.15 11.4 °C 36 % -3.1 °C 1011.4 hPa 0.0 Km/h WNW 0.0 mm  8.2 °C 11.4 °C
Lovere (BG) 20/01/18 04.21 3.4 °C 38 % -9.6 °C 1010.7 hPa 0.0 Km/h WSW 0.0 mm  2.5 °C 4.3 °C
Lugagnano (VR) 20/01/18 04.33 2.6 °C 80 % -0.6 °C 1011.7 hPa 0.0 Km/h W 0.0 mm  1.4 °C 3.0 °C
Lugo di Vicenza (VI) 17/01/18 16.30 9.6 °C 21 % -11.7 °C 1002.5 hPa 20.9 Km/h W 0.3 mm  0.3 °C 12.0 °C
Lusiana Sciessere (VI) 20/01/18 04.27 2.7 °C 79 % -0.6 °C 1011.1 hPa 0.0 Km/h E 0.0 mm  1.5 °C 3.4 °C
Magnano (BI) 16/01/18 21.09 -0.1 °C 89 % -1.7 °C 1029.0 hPa 0.0 Km/h NW 0.0 mm  -0.2 °C 5.2 °C
Malga Malera (VR) 20/01/18 04.21 -12.5 °C  %  °C  hPa 0.0 Km/h 0.0 mm   °C  °C
Malnate San Salvatore (VA) 20/01/18 04.15 3.6 °C 61 % -3.2 °C 1013.7 hPa 1.6 Km/h NW 0.0 mm  1.3 °C 7.2 °C
Marano Vicentino2 (VI) 20/01/18 04.30 1.6 °C 73 % -2.7 °C 1011.4 hPa 0.0 Km/h W 0.0 mm  0.8 °C 1.5 °C
Margone (TN) 20/01/18 04.30 -0.6 °C 58 % -7.9 °C 1014.5 hPa 9.3 Km/h NNE 0.0 mm  -0.7 °C 1.0 °C
Marostica Valle San Floriano (VI) 20/01/18 04.34 4.2 °C 80 % 1.1 °C 1013.9 hPa 0.0 Km/h SW 0.0 mm  2.8 °C 4.5 °C
Marta (VT) 20/01/18 04.15 7.9 °C 86 % 5.7 °C 1009.1 hPa 5.6 Km/h WSW 0.0 mm  6.6 °C 8.2 °C
Martignano (TN) 20/01/18 04.15 1.3 °C 60 % -5.6 °C 1012.7 hPa 0.0 Km/h WNW 0.0 mm  0.8 °C 2.4 °C
Masiera di Bagnacavallo (RA) 20/01/18 04.30 -0.1 °C 91 % -1.4 °C 1012.1 hPa 1.3 Km/h WSW 0.0 mm  -0.1 °C 2.5 °C
Massarosa (LU) 20/01/18 04.33 5.8 °C 91 % 4.4 °C 999.4 hPa 1.1 Km/h NE 0.0 mm  5.7 °C 8.1 °C
Massone di Arco (TN) 20/01/18 04.30 2.8 °C 61 % -4.0 °C 1011.3 hPa 4.0 Km/h ESE 0.0 mm  1.4 °C 3.9 °C
Mazzurega (VR) 20/01/18 04.26 5.2 °C 56 % -2.9 °C 1012.4 hPa 0.0 Km/h SW 0.0 mm  3.6 °C 5.6 °C
Merlara (PD) 20/01/18 04.15 0.7 °C 89 % -0.9 °C 1011.9 hPa 0.0 Km/h NNE 0.0 mm  -0.8 °C 0.9 °C
Mezzana Bigli (PV) 20/01/18 04.30 -0.5 °C 95 % -1.2 °C 1012.6 hPa 0.0 Km/h WSW 0.0 mm  -0.8 °C 1.2 °C
Migliarino (FE) 20/01/18 04.30 1.0 °C 78 % -2.4 °C 1011.6 hPa 1.1 Km/h S 0.0 mm  1.0 °C 3.9 °C
Miglionico (MT) 20/01/18 04.20 9.4 °C 76 % 5.4 °C 1009.1 hPa 0.0 Km/h --- 0.0 mm  9.4 °C 10.4 °C
Miola di Piné (TN) 20/01/18 04.30 -1.8 °C 57 % -9.2 °C 1014.0 hPa 2.2 Km/h ENE 0.0 mm  -2.8 °C -1.7 °C
Mirabella Imbaccari (CT) 20/01/18 04.18 8.1 °C 91 % 6.7 °C 1016.8 hPa 9.3 Km/h NW 0.0 mm  7.6 °C 8.8 °C
Molina (VR) 20/01/18 04.25 2.2 °C 49 % -7.4 °C 1001.6 hPa 2.6 Km/h NE 0.0 mm  0.0 °C 2.4 °C
Monasterolo Torinese (TO) 20/01/18 04.15 7.9 °C 28 % -9.4 °C 1009.4 hPa 8.0 Km/h WNW 0.0 mm  7.9 °C 9.4 °C
Moneglia loc. Casale (GE) 20/01/18 04.31 10.3 °C 51 % 0.6 °C 1013.0 hPa 4.8 Km/h W 0.0 mm  9.1 °C 10.4 °C
Moneglia loc. La Secca (GE) 20/01/18 04.30 9.4 °C 77 % 5.6 °C 1011.1 hPa 4.8 Km/h N 0.0 mm  8.9 °C 10.4 °C
Mongrando San Michele (BI) 20/01/18 04.10 7.2 °C 29 % -9.7 °C 1012.7 hPa 4.8 Km/h WSW 0.0 mm  2.8 °C 7.3 °C
Montagna in Valtellina (SO) 20/01/18 04.30 1.4 °C 62 % -5.1 °C 1014.8 hPa 0.0 Km/h NE 0.0 mm  1.3 °C 2.8 °C
Montebello Vicentino loc. Selva (VI) 20/01/18 04.30 6.7 °C 57 % -1.2 °C 1011.9 hPa 18.2 Km/h NE 0.0 mm  4.9 °C 7.5 °C
Montecchio Maggiore La Valle (VI) 20/01/18 04.25 3.2 °C 10 % -25.5 °C 1006.3 hPa 0.0 Km/h N 0.0 mm  1.8 °C 5.2 °C
Montecchio Maggiore Sant'Urbano (VI) 20/01/18 04.24 4.8 °C 65 % -1.3 °C 1014.8 hPa 3.5 Km/h NNW 0.0 mm  4.3 °C 5.4 °C
Monteforte d'Alpone (VR) 20/01/18 04.35 3.8 °C 79 % 0.5 °C 1010.8 hPa 6.4 Km/h E 0.0 mm  0.9 °C 5.6 °C
Montelabbate (PU) 20/01/18 04.25 5.8 °C 84 % 3.3 °C 1006.7 hPa 0.0 Km/h SSW 0.0 mm  5.8 °C 7.9 °C
Montespertoli (FI) 20/01/18 04.26 7.4 °C 95 % 6.7 °C 1013.1 hPa 0.0 Km/h N 0.0 mm  7.3 °C 7.4 °C
Montopoli in val d'Arno Loc. Capanne (PI) 20/01/18 04.30 3.7 °C 94 % 2.8 °C 1011.9 hPa 3.6 Km/h E 0.0 mm  0.0 °C 0.0 °C
Montorio (VR) 20/01/18 04.26 3.7 °C 72 % -0.9 °C 1014.8 hPa 1.8 Km/h E 0.0 mm  2.4 °C 4.8 °C
Montorso Vicentino (VI) 20/01/18 04.30 4.4 °C 80 % 1.3 °C 1012.0 hPa 0.0 Km/h N 0.0 mm  3.2 °C 6.5 °C
Morbegno (SO) 20/01/18 04.30 2.6 °C 57 % -5.1 °C 1015.7 hPa 0.0 Km/h NE 0.0 mm  1.8 °C 4.6 °C
Muzzano (BI) 20/01/18 04.10 6.5 °C 28 % -10.7 °C 1011.8 hPa 4.8 Km/h WNW 0.0 mm  4.6 °C 7.9 °C
Nichelino (TO) 20/01/18 04.40 8.7 °C 26 % -9.8 °C 1011.8 hPa 6.4 Km/h NW 0.0 mm  5.7 °C 9.9 °C
Novara (NO) 20/01/18 01.50 1.9 °C 85 % -0.4 °C 1012.0 hPa 0.0 Km/h --- 0.0 mm  1.9 °C 2.7 °C
Onara extraurbana (PD) 19/01/18 18.39 6.5 °C 65 % 0.4 °C 1004.8 hPa 0.0 Km/h SSE 0.0 mm  -2.5 °C 10.4 °C
Oppeano (VR) 18/01/18 22.20 2.2 °C 68 % -3.1 °C 1007.6 hPa 0.0 Km/h --- 0.0 mm  -0.2 °C 12.5 °C
Oristano (OR) 20/01/18 04.31 11.1 °C 80 % 7.7 °C 1015.6 hPa 2.0 Km/h N 0.0 mm  10.7 °C 12.3 °C
Orosei (NU) 20/01/18 04.36 12.9 °C 54 % 3.9 °C 1012.8 hPa 1.6 Km/h E 0.0 mm  12.9 °C 13.8 °C
Ortonovo (SP) 20/01/18 04.30 8.3 °C 58 % 0.5 °C 1006.5 hPa 6.6 Km/h E 0.0 mm  7.9 °C 8.8 °C
Orvieto (TR) 20/01/18 04.16 4.8 °C 91 % 3.5 °C 1009.1 hPa 0.0 Km/h SE 0.0 mm  4.6 °C 7.1 °C
Ostana (CN) 19/01/18 21.47 -0.4 °C 41 % -12.1 °C 1009.0 hPa 6.4 Km/h W 3.8 mm  -2.1 °C 7.8 °C
Ostiano (CR) 20/01/18 04.28 0.7 °C 83 % -1.9 °C 1011.2 hPa 0.0 Km/h NE 0.0 mm  -0.5 °C 2.3 °C
Ovaro loc. Liariis (UD) 20/01/18 04.25 -1.5 °C 67 % -6.8 °C 1015.8 hPa 0.0 Km/h --- 0.0 mm  -2.8 °C -1.4 °C
Pace del Mela (ME) 20/01/18 04.31 10.3 °C 66 % 4.2 °C 1014.7 hPa 5.0 Km/h SW 0.0 mm  8.9 °C 11.4 °C
Padergnone (TN) 20/01/18 04.15 4.2 °C 55 % -4.0 °C 1013.5 hPa 14.6 Km/h NNE 0.0 mm  1.7 °C 5.0 °C
Parella (TO) 20/01/18 04.23 5.8 °C 45 % -5.2 °C 1011.1 hPa 0.0 Km/h WNW 0.0 mm  4.5 °C 7.0 °C
Pastrengo (VR) 20/01/18 04.28 3.3 °C 56 % -4.6 °C 1013.4 hPa 3.7 Km/h S 0.0 mm  3.0 °C 4.2 °C
Pastrengo Corné (VR) 20/01/18 04.35 0.0 °C 0 % 0.0 °C 1012.1 hPa 0.0 Km/h N 0.0 mm  2.4 °C 4.2 °C
Pecetto Torinese (TO) 20/01/18 04.23 7.2 °C 34 % -7.7 °C 1012.8 hPa 6.4 Km/h NW 0.0 mm  7.2 °C 9.3 °C
Pedara (CT) 20/01/18 04.30 5.3 °C 73 % 0.8 °C 1008.5 hPa 2.6 Km/h NNW 0.0 mm  4.8 °C 9.0 °C
Pedemonte (VR) 20/01/18 04.35 1.6 °C 86 % -0.5 °C 1012.4 hPa 0.0 Km/h N 0.0 mm  0.4 °C 1.6 °C
Perugia San Mariano (PG) 20/01/18 04.21 7.2 °C 89 % 5.6 °C 1012.4 hPa 0.3 Km/h N 0.0 mm  6.9 °C 8.8 °C
Pescantina Are (VR) 20/01/18 04.25 2.6 °C 79 % -0.7 °C 1012.4 hPa 0.0 Km/h SW 0.0 mm  0.4 °C 2.9 °C
Pila Valsesia (VC) 20/01/18 04.30 0.1 °C 76 % -3.7 °C 1012.1 hPa 1.6 Km/h N 0.0 mm  -0.2 °C 3.1 °C
Piovà Massaia (AT) 20/01/18 04.30 3.4 °C 67 % -2.1 °C 1012.1 hPa 0.0 Km/h WNW 0.0 mm  3.7 °C 6.5 °C
Piraino contr. Fiumara (ME) 20/01/18 04.35 7.8 °C 84 % 5.3 °C 1014.3 hPa 0.0 Km/h ENE 0.0 mm  7.8 °C 9.1 °C
Pisa zona I Passi (PI) 20/01/18 04.30 5.2 °C 86 % 3.1 °C 1012.3 hPa 0.0 Km/h E 0.0 mm  5.2 °C 7.8 °C
Pojana Maggiore Cagnano (VI) 20/01/18 04.29 3.4 °C 75 % -0.6 °C 1012.2 hPa 12.2 Km/h NE 0.0 mm  -0.1 °C 3.4 °C
Pomezia (RM) 20/01/18 04.30 9.3 °C 92 % 8.1 °C 1010.3 hPa 8.0 Km/h NW 0.2 mm  9.3 °C 10.5 °C
Ponte San Nicolò (PD) 20/01/18 04.21 2.6 °C 86 % 0.4 °C 1012.4 hPa 0.0 Km/h N 0.0 mm  2.5 °C 3.2 °C
Ponte San Pellegrino (MO) 20/01/18 04.29 -0.4 °C 91 % -1.7 °C 1015.4 hPa 6.1 Km/h SW 0.0 mm  -0.8 °C 2.8 °C
Pordenone (PN) 20/01/18 04.30 2.7 °C 83 % 0.1 °C 1013.5 hPa 1.6 Km/h NE 0.0 mm  2.6 °C 4.1 °C
Pozzolo Formigaro (AL) 20/01/18 04.36 -0.7 °C 89 % -2.3 °C 1013.8 hPa 3.2 Km/h SSE 0.0 mm  -0.8 °C 3.1 °C
Pray (BI) 20/01/18 04.30 -1.5 °C 87 % -3.4 °C 1013.2 hPa 2.0 Km/h ENE 0.0 mm  -1.5 °C 1.8 °C
Reggello (FI) 20/01/18 04.30 6.2 °C 87 % 4.2 °C 1014.4 hPa 3.2 Km/h S 0.0 mm  5.6 °C 7.7 °C
Riccione (RN) 20/01/18 03.55 5.7 °C 85 % 3.4 °C 1012.3 hPa 1.6 Km/h WNW 0.0 mm  5.7 °C 7.4 °C
Rifugio Bocca di Selva (VR) 20/01/18 00.27 -1.2 °C 51 % -10.1 °C 1012.9 hPa 0.0 Km/h SW 0.0 mm  -1.4 °C 3.6 °C
Rifugio Primaneve (VR) 20/01/18 04.20 -3.3 °C 77 % -6.7 °C 1012.1 hPa 12.9 Km/h WSW 0.0 mm  -3.4 °C -2.7 °C
Rimini (RN) 20/01/18 04.30 4.4 °C 89 % 2.7 °C 1012.6 hPa 0.0 Km/h WNW 0.3 mm  4.3 °C 7.4 °C
Rimini Zona Palas (RN) 20/01/18 04.12 4.6 °C 90 % 3.3 °C 1013.1 hPa 4.8 Km/h WNW 0.3 mm  4.6 °C 7.3 °C
Rivalta sul Mincio (MN) 20/01/18 04.36 -0.5 °C 93 % -1.5 °C 1013.3 hPa 0.2 Km/h N 0.0 mm  -1.3 °C 0.2 °C
Romano d'Ezzelino Fellette (VI) 20/01/18 04.30 2.9 °C 63 % -3.4 °C 1015.9 hPa 3.0 Km/h WNW 0.0 mm  1.5 °C 5.8 °C
Ronciglione Centro (VT) 20/01/18 04.30 6.6 °C 98 % 6.3 °C 1011.0 hPa 0.0 Km/h NW 0.0 mm  6.6 °C 8.7 °C
Rosolina (RO) 20/01/18 04.20 1.8 °C 97 % 1.4 °C 1012.8 hPa 3.2 Km/h N 0.0 mm  -0.2 °C 1.8 °C
S. Giovanni Ilarione2 (VR) 20/01/18 04.35 4.1 °C 84 % 1.6 °C 1012.3 hPa 0.0 Km/h NW 0.0 mm  2.2 °C 4.5 °C
S. Giovanni Lupatoto (VR) 20/01/18 04.30 4.2 °C 84 % 1.7 °C 1012.9 hPa 0.0 Km/h --- 0.0 mm  1.2 °C 4.3 °C
S. Giovanni Rotondo (FG) 20/01/18 04.35 7.8 °C 84 % 5.3 °C 1010.0 hPa 0.0 Km/h --- 0.0 mm  7.8 °C 8.9 °C
S. Lorenzo di Vittorio Veneto (TV) 20/01/18 04.30 4.5 °C 52 % -4.5 °C 1013.2 hPa 9.7 Km/h NNE 0.0 mm  4.4 °C 5.1 °C
S. Lorenzo Nuovo (VT) 20/01/18 04.30 6.6 °C 82 % 3.7 °C 1008.9 hPa 0.0 Km/h NNW 0.0 mm  6.6 °C 8.4 °C
S. Maria di Zevio Loc. 3 Ponti (VR) 20/01/18 04.30 4.4 °C 82 % 1.7 °C 1014.8 hPa 2.0 Km/h SSW 0.0 mm  0.2 °C 5.4 °C
S. Maria Maddalena (RO) 20/01/18 04.25 -0.3 °C 92 % -1.7 °C 1011.7 hPa 0.0 Km/h WNW 0.0 mm  -0.3 °C 1.1 °C
S. Martino Lupari (PD) 20/01/18 04.30 1.6 °C 89 % -0.1 °C 1013.4 hPa 0.0 Km/h --- 0.0 mm  1.5 °C 3.1 °C
S. Rocco di Villabalzana (VI) 20/01/18 04.33 4.7 °C 73 % 0.0 °C 1012.2 hPa 6.5 Km/h ESE 0.0 mm  2.2 °C 4.7 °C
S. Zeno di Mont. Prada (VR) 20/01/18 04.10 -0.9 °C 78 % -4.3 °C 1012.1 hPa 0.0 Km/h --- 0.0 mm  -1.7 °C -0.4 °C
Sacile (PN) 20/01/18 04.13 2.7 °C 87 % 0.8 °C 1012.4 hPa 1.6 Km/h NE 0.0 mm  2.3 °C 4.3 °C
Salcedo (VI) 20/01/18 04.30 4.6 °C 66 % -1.2 °C 1010.5 hPa 2.2 Km/h NE 0.0 mm  3.5 °C 5.5 °C
San Benedetto del Tronto (AP) 20/01/18 04.30 9.6 °C 77 % 5.8 °C 1011.0 hPa 0.0 Km/h WSW 0.0 mm  9.6 °C 10.8 °C
San Cataldo (CL) 20/01/18 04.30 6.8 °C 96 % 6.2 °C 1010.4 hPa 1.9 Km/h W 0.0 mm  6.8 °C 8.0 °C
San Giovanni la Punta Trappeto (CT) 20/01/18 04.35 9.0 °C 79 % 5.6 °C 1014.1 hPa 1.6 Km/h NW 0.0 mm  9.0 °C 10.2 °C
San Nazario (VI) 20/01/18 04.21 3.2 °C 52 % -5.7 °C 1012.4 hPa 6.1 Km/h NNW 0.0 mm  2.4 °C 3.6 °C
San Pietro in Cariano (VR) 20/01/18 04.29 2.9 °C 59 % -4.3 °C 1012.7 hPa 4.1 Km/h S 0.0 mm  2.9 °C 4.8 °C
San Potito Lugo (RA) 15/01/18 18.35 4.8 °C 83 % 2.2 °C 1025.9 hPa 0.0 Km/h NW 0.0 mm  -0.6 °C 9.8 °C
San Salvo3 (CH) 20/01/18 04.30 10.3 °C 88 % 8.4 °C 1008.7 hPa 8.0 Km/h NW 0.0 mm  10.2 °C 12.3 °C
San Vito (CA) 20/01/18 04.31 11.9 °C 63 % 5.1 °C 1007.6 hPa 0.0 Km/h N 0.0 mm  11.9 °C 13.1 °C
San Zeno di Mont. Loc. Castello (VR) 20/01/18 04.30 2.7 °C 60 % -4.4 °C 1011.9 hPa 2.0 Km/h WNW 0.0 mm  2.7 °C 4.7 °C
Santarcangelo di Romagna (RN) 20/01/18 04.31 8.9 °C 71 % 3.9 °C 1012.4 hPa 0.0 Km/h SSE 0.0 mm  8.9 °C 8.9 °C
Sarcedo (VI) 20/01/18 04.30 3.8 °C 57 % -3.9 °C 1011.5 hPa 5.0 Km/h NE 0.0 mm  1.9 °C 4.0 °C
Savelli (KR) 20/01/18 04.31 7.2 °C 68 % 1.7 °C 1012.4 hPa 10.2 Km/h WSW 0.0 mm  6.8 °C 7.6 °C
Schio (VI) 20/01/18 04.20 4.2 °C 68 % -1.2 °C 1013.8 hPa 4.8 Km/h NW 0.0 mm  2.0 °C 4.2 °C
Schio Monte Magré (VI) 20/01/18 04.31 4.1 °C 84 % 1.6 °C 0.0 hPa 3.2 Km/h W 0.0 mm  2.2 °C 4.4 °C
Seremange Erzange (Moselle) 20/01/18 04.30 2.3 °C 94 % 1.4 °C 1013.3 hPa 6.5 Km/h WNW 1.0 mm  1.4 °C 2.5 °C
Sinnai (CA) 19/01/18 23.55 11.3 °C 83 % 8.5 °C 1015.5 hPa 11.3 Km/h N 0.0 mm  9.4 °C 15.4 °C
Soave Borgo Bassano (VR) 20/01/18 04.35 6.8 °C 74 % 2.5 °C 1012.7 hPa 3.0 Km/h NE 0.0 mm  1.7 °C 7.5 °C
Soave Loc. Pressi Costeggiola (VR) 19/01/18 01.50 2.1 °C 76 % -1.7 °C 1006.3 hPa 0.0 Km/h N 0.0 mm  2.1 °C 3.6 °C
Sona Loc. La Colombara (VR) 20/01/18 04.00 1.7 °C 79 % -1.7 °C 1009.1 hPa 0.0 Km/h NE 0.0 mm  0.8 °C 4.6 °C
Soriso (NO) 20/01/18 04.30 6.3 °C 45 % -4.8 °C 1013.1 hPa 3.2 Km/h WNW 0.0 mm  4.0 °C 6.8 °C
Staranzano (GO) 20/01/18 04.20 2.2 °C 81 % -0.7 °C 1013.8 hPa 0.0 Km/h ESE 0.0 mm  1.7 °C 6.4 °C
Stiore - Monteveglio (BO) 20/01/18 04.30 0.4 °C 91 % -0.9 °C 1009.5 hPa 0.0 Km/h ENE 0.0 mm  0.2 °C 4.2 °C
Taio Mollaro (TN) 20/01/18 04.30 -3.7 °C 80 % -6.6 °C 1013.9 hPa 0.0 Km/h N 0.0 mm  -4.0 °C -2.4 °C
Taranto (TA) 19/01/18 06.16 7.8 °C 78 % 4.2 °C 1012.3 hPa 2.0 Km/h ESE 0.0 mm  5.8 °C 8.9 °C
Todi (PG) 20/01/18 04.35 7.8 °C 82 % 4.9 °C 1010.5 hPa 0.0 Km/h N 0.2 mm  7.7 °C 8.6 °C
Tombolo (PD) 20/01/18 04.31 1.9 °C 86 % -0.2 °C 1013.4 hPa 0.0 Km/h ENE 0.0 mm  1.6 °C 2.8 °C
Torino Regio Parco (TO) 20/01/18 04.31 3.3 °C 63 % -3.1 °C 1014.4 hPa 2.2 Km/h ENE 0.0 mm  3.2 °C 7.8 °C
Torre Annunziata (NA) 15/01/18 08.15 9.2 °C 88 % 7.3 °C 1023.1 hPa 8.3 Km/h ESE 0.0 mm  9.1 °C 10.2 °C
Torri (FI) 20/01/18 04.30 5.6 °C 96 % 5.0 °C 1011.6 hPa 0.0 Km/h --- 0.3 mm  5.5 °C 7.8 °C
Torrita di Siena (SI) 20/01/18 04.30 6.0 °C 92 % 4.8 °C 1012.8 hPa 0.0 Km/h --- 0.0 mm  6.0 °C 7.3 °C
Trambileno (TN) 20/01/18 04.15 -0.5 °C 72 % -5.0 °C 1012.4 hPa 0.0 Km/h N 0.0 mm  -2.4 °C -0.5 °C
Tregnago Loc. Centro (VR) 19/01/18 12.35 7.4 °C 65 % 1.3 °C 1001.8 hPa 11.3 Km/h SSE 0.0 mm  1.8 °C 7.6 °C
Trento (TN) 20/01/18 04.31 1.2 °C 66 % -4.5 °C 1013.1 hPa 4.8 Km/h N 0.0 mm  0.7 °C 1.4 °C
Treviso (TV) 20/01/18 04.31 4.5 °C 70 % -0.5 °C 1012.8 hPa 4.0 Km/h NE 0.0 mm  2.3 °C 4.5 °C
Tuscania (VT) 19/01/18 09.30 10.1 °C 92 % 8.9 °C 1013.2 hPa 1.7 Km/h E 0.0 mm  5.7 °C 10.1 °C
Val Lastaro (VI) 20/01/18 01.39 -3.9 °C 93 % -5.0 °C 1015.2 hPa 0.0 Km/h E 0.0 mm  -5.8 °C -3.7 °C
Valdobbiadene San Pietro di Barbozza (TV) 20/01/18 04.30 5.4 °C 76 % 1.5 °C 1011.3 hPa 0.0 Km/h --- 0.0 mm  5.0 °C 6.6 °C
Valentano (VT) 20/01/18 04.30 6.9 °C 87 % 5.0 °C 1010.1 hPa 9.6 Km/h WSW 0.0 mm  6.9 °C 8.4 °C
Valenza (AL) 20/01/18 04.18 0.9 °C 92 % -0.2 °C 1012.8 hPa 3.2 Km/h S 0.0 mm  0.8 °C 4.2 °C
Valli del Pasubio loc. Gisbenti (VI) 20/01/18 04.30 0.4 °C 57 % -7.1 °C 968.0 hPa 0.0 Km/h --- 0.0 mm  -1.3 °C 0.4 °C
Varese Ligure (SP) 19/01/18 23.31 0.0 °C 36 % -13.3 °C 1009.5 hPa 1.0 Km/h NE 0.3 mm  0.0 °C 12.5 °C
Vasto (CH) 18/01/18 20.11 10.2 °C 10 % -20.1 °C 1014.4 hPa 0.0 Km/h --- 0.0 mm  5.3 °C 15.7 °C
Vattaro fraz. Pian dei Pradi (TN) 19/01/18 23.33 0.2 °C 56 % -7.6 °C 1014.4 hPa 1.3 Km/h WSW 0.2 mm  -3.4 °C 6.0 °C
Vazzo Roveré Veronese (VR) 19/01/18 23.31 2.8 °C 52 % -6.1 °C 1009.5 hPa 6.4 Km/h NNE 0.0 mm  2.1 °C 8.7 °C
Verona Bgo Venezia (iz3sly) (VR) 20/01/18 04.21 4.3 °C 71 % -0.5 °C 1011.4 hPa 6.4 Km/h NE 0.0 mm  1.5 °C 4.4 °C
Vicenza Campedello (VI) 19/01/18 23.37 0.1 °C 89 % -1.7 °C 1012.7 hPa 0.0 Km/h SW 0.0 mm  -2.9 °C 10.8 °C
Vicenza Moracchino (VI) 19/01/18 23.31 1.7 °C 61 % -5.0 °C 1011.1 hPa 1.6 Km/h SW 0.0 mm  -1.6 °C 10.0 °C
Vicenza Pecori Giraldi (VI) 20/01/18 04.20 2.3 °C 100 % 2.3 °C 1012.8 hPa 0.0 Km/h NE 0.0 mm  1.3 °C 2.3 °C
Vicenza S. Lazzaro (VI) 19/01/18 23.31 3.1 °C 78 % -0.6 °C 1011.4 hPa 0.0 Km/h NNW 0.0 mm  -0.7 °C 10.8 °C
Vicenza San Gaetano (VI) 19/01/18 22.30 3.1 °C 85 % 0.8 °C 1011.4 hPa 0.0 Km/h ENE 0.0 mm  0.1 °C 11.9 °C
Vidor (TV) 20/01/18 04.35 1.4 °C 80 % -1.7 °C 1011.2 hPa 0.0 Km/h NW 0.0 mm  0.8 °C 1.8 °C
Vieste (FG) 19/01/18 23.31 11.3 °C 65 % 4.9 °C 1011.8 hPa 0.0 Km/h S 0.0 mm  6.4 °C 17.0 °C
Vigasio (VR) 20/01/18 04.30 1.9 °C 87 % 0.0 °C 1011.3 hPa 1.6 Km/h NNE 0.0 mm  0.9 °C 1.9 °C
Vigevano (PV) 19/01/18 19.52 5.4 °C 75 % 1.3 °C 994.4 hPa 0.0 Km/h N 0.0 mm  1.0 °C 10.7 °C
Viozene Toria (CN) 19/01/18 23.31 0.5 °C 50 % -8.7 °C 1001.5 hPa 2.0 Km/h NW 0.0 mm  0.2 °C 11.5 °C
Viterbo Santa Barbara (VT) 19/01/18 22.23 7.8 °C 91 % 6.4 °C 1011.1 hPa 0.0 Km/h SSW 0.0 mm  6.4 °C 11.0 °C
Viterbo Strada Bagni (VT) 19/01/18 23.30 7.9 °C 92 % 6.7 °C 1011.4 hPa 0.0 Km/h ENE 0.4 mm  1.9 °C 11.9 °C
Vitorchiano Pallone (VT) 19/01/18 18.40 10.6 °C 84 % 8.0 °C 1010.0 hPa 6.4 Km/h N 0.0 mm  7.9 °C 11.9 °C
Vittorio Veneto (TV) 20/01/18 00.25 4.1 °C 62 % -2.6 °C 1012.8 hPa 0.0 Km/h NNE 0.0 mm  3.4 °C 4.1 °C
Vittorio Veneto Parco Fenderl (TV) 20/01/18 00.20 4.4 °C 61 % -2.4 °C 1013.4 hPa 1.6 Km/h W 0.0 mm  4.1 °C 4.5 °C
Volpago del Montello (TV) 20/01/18 04.30 2.9 °C 88 % 1.1 °C 1012.2 hPa 0.0 Km/h --- 0.0 mm  2.0 °C 3.7 °C
 
(*) = Precipitazioni nelle ultime 24h.
Dati non aggiornati nell'ultima ora.
   
In collaborazione con:
 
Top! Top!